KSCH/SCH METAR and TAF weather

Enter ICAO airport designator
Station Type Date Time Source
KSCH METAR 2020/01/22 23:50 UTC NOAA

KSCH 222350Z 00000KT 10SM CLR M02/M08 A3040


Station Type Date Time Source
KSCH Decoded METAR 2020/01/22 23:50 UTC NOAA

Schenectady Airport, NY, United States (KSCH) 42-51N 073-56W
Jan 22, 2020 - 06:50 PM EST / 2020.01.22 2350 UTC
Wind: Calm:0
Visibility: 10 mile(s):0
Sky conditions: clear
Temperature: 28 F (-2 C)
Dew Point: 17 F (-8 C)
Relative Humidity: 63%
Pressure (altimeter): 30.4 in. Hg (1029 hPa)
ob: KSCH 222350Z 00000KT 10SM CLR M02/M08 A3040
cycle: 0

Station Type Date Time Source
KSCH TAF UTC NOAA

Error!

Example: see airport list